createdAt,value
2018-10-17T00:01:49.167Z,11.00
2018-10-17T00:04:16.730Z,11.10
2018-10-17T00:06:44.294Z,11.10
2018-10-17T00:09:11.896Z,11.10
2018-10-17T00:11:39.471Z,11.00
2018-10-17T00:14:07.030Z,11.00
2018-10-17T00:16:34.630Z,10.90
2018-10-17T00:19:02.977Z,10.80
2018-10-17T00:21:30.618Z,10.80
2018-10-17T00:23:58.189Z,10.80
2018-10-17T00:26:25.757Z,10.80
2018-10-17T00:28:53.355Z,10.80
2018-10-17T00:31:21.919Z,10.80
2018-10-17T00:33:49.564Z,10.80
2018-10-17T00:36:17.132Z,10.80
2018-10-17T00:38:44.728Z,10.80
2018-10-17T00:41:12.441Z,10.80
2018-10-17T00:43:39.870Z,10.80
2018-10-17T00:46:07.492Z,10.70
2018-10-17T00:48:35.052Z,10.60
2018-10-17T00:51:02.852Z,10.60
2018-10-17T00:53:30.445Z,10.60
2018-10-17T00:55:57.995Z,10.50
2018-10-17T00:58:26.694Z,10.50
2018-10-17T01:00:54.283Z,10.50
2018-10-17T01:03:21.816Z,10.50
2018-10-17T01:05:49.453Z,10.50
2018-10-17T01:08:16.979Z,10.50
2018-10-17T01:10:45.347Z,10.60
2018-10-17T01:13:13.046Z,10.60
2018-10-17T01:15:40.572Z,10.60
2018-10-17T01:18:08.138Z,10.70
2018-10-17T01:20:35.717Z,10.70
2018-10-17T01:23:03.392Z,10.60
2018-10-17T01:25:30.878Z,10.50
2018-10-17T01:27:58.485Z,10.50
2018-10-17T01:30:26.043Z,10.40
2018-10-17T01:32:53.612Z,10.40
2018-10-17T01:35:21.203Z,10.30
2018-10-17T01:37:48.769Z,10.30
2018-10-17T01:40:16.417Z,10.20
2018-10-17T01:42:45.050Z,10.20
2018-10-17T01:45:12.615Z,10.10
2018-10-17T01:47:40.206Z,10.10
2018-10-17T01:50:07.776Z,10.10
2018-10-17T01:52:36.189Z,10.00
2018-10-17T01:55:03.812Z,10.00
2018-10-17T01:57:31.311Z,10.00
2018-10-17T01:59:58.895Z,9.90
2018-10-17T02:02:26.457Z,9.90
2018-10-17T02:04:54.117Z,9.80
2018-10-17T02:07:21.662Z,9.80
2018-10-17T02:09:49.219Z,9.80
2018-10-17T02:12:16.804Z,9.80
2018-10-17T02:14:44.366Z,9.70
2018-10-17T02:17:12.115Z,9.70
2018-10-17T02:19:39.581Z,9.70
2018-10-17T02:22:07.145Z,9.70
2018-10-17T02:24:34.734Z,9.70
2018-10-17T02:27:02.295Z,9.70
2018-10-17T02:29:29.899Z,9.70
2018-10-17T02:31:57.455Z,9.70
2018-10-17T02:34:25.047Z,9.70
2018-10-17T02:36:52.597Z,9.70
2018-10-17T02:39:20.171Z,9.60
2018-10-17T02:41:47.761Z,9.60
2018-10-17T02:44:15.319Z,9.50
2018-10-17T02:46:42.877Z,9.50
2018-10-17T02:49:10.493Z,9.40
2018-10-17T02:51:38.044Z,9.40
2018-10-17T02:54:06.154Z,9.40
2018-10-17T02:56:33.724Z,9.40
2018-10-17T02:59:01.329Z,9.40
2018-10-17T03:01:28.886Z,9.40
2018-10-17T03:03:57.219Z,9.40
2018-10-17T03:06:26.130Z,9.40
2018-10-17T03:08:53.699Z,9.40
2018-10-17T03:11:21.270Z,9.40
2018-10-17T03:13:48.857Z,9.40
2018-10-17T03:16:16.424Z,9.40
2018-10-17T03:18:45.196Z,9.40
2018-10-17T03:21:11.645Z,9.30
2018-10-17T03:23:39.989Z,9.40
2018-10-17T03:26:07.579Z,9.40
2018-10-17T03:28:35.146Z,9.40
2018-10-17T03:31:03.893Z,9.30
2018-10-17T03:33:31.377Z,9.20
2018-10-17T03:35:59.004Z,9.10
2018-10-17T03:38:27.309Z,9.00
2018-10-17T03:40:54.882Z,9.00
2018-10-17T03:43:22.516Z,9.00
2018-10-17T03:45:50.129Z,9.10
2018-10-17T03:48:18.035Z,9.10
2018-10-17T03:50:45.656Z,9.20
2018-10-17T03:53:13.360Z,9.20
2018-10-17T03:55:41.340Z,9.20
2018-10-17T03:58:08.907Z,9.10
2018-10-17T04:00:36.478Z,9.20
2018-10-17T04:03:05.329Z,9.20
2018-10-17T04:05:32.835Z,9.30
2018-10-17T04:08:00.395Z,9.20
2018-10-17T04:10:28.574Z,9.10
2018-10-17T04:12:56.188Z,9.10
2018-10-17T04:15:23.705Z,9.00
2018-10-17T04:17:52.766Z,8.90
2018-10-17T04:20:20.337Z,8.90
2018-10-17T04:22:47.955Z,8.90
2018-10-17T04:25:15.581Z,8.90
2018-10-17T04:27:43.054Z,8.90
2018-10-17T04:30:10.681Z,8.80
2018-10-17T04:32:38.285Z,8.80
2018-10-17T04:35:05.852Z,8.70
2018-10-17T04:37:34.229Z,8.70
2018-10-17T04:40:01.796Z,8.70
2018-10-17T04:42:29.365Z,8.70
2018-10-17T04:44:56.955Z,8.70
2018-10-17T04:47:24.572Z,8.80
2018-10-17T04:49:52.695Z,8.80
2018-10-17T04:52:20.269Z,8.80
2018-10-17T04:54:47.841Z,8.80
2018-10-17T04:57:15.448Z,8.70
2018-10-17T04:59:43.019Z,8.70
2018-10-17T05:02:10.629Z,8.70
2018-10-17T05:04:38.228Z,8.70
2018-10-17T05:07:06.079Z,8.70
2018-10-17T05:09:33.996Z,8.70
2018-10-17T05:12:01.559Z,8.70
2018-10-17T05:14:29.131Z,8.60
2018-10-17T05:16:56.837Z,8.60
2018-10-17T05:19:24.336Z,8.60
2018-10-17T05:21:51.914Z,8.60
2018-10-17T05:24:19.506Z,8.60
2018-10-17T05:26:47.086Z,8.60
2018-10-17T05:29:15.579Z,8.60
2018-10-17T05:31:43.040Z,8.50
2018-10-17T05:34:10.691Z,8.50
2018-10-17T05:36:38.260Z,8.50
2018-10-17T05:39:06.069Z,8.50
2018-10-17T05:41:34.888Z,8.70
2018-10-17T05:44:02.448Z,8.70
2018-10-17T05:46:30.018Z,8.60
2018-10-17T05:48:57.669Z,8.60
2018-10-17T05:51:25.177Z,8.70
2018-10-17T05:53:52.799Z,8.90
2018-10-17T05:56:20.372Z,8.90
2018-10-17T05:58:47.930Z,8.80
2018-10-17T06:01:16.476Z,8.70
2018-10-17T06:03:44.654Z,8.70
2018-10-17T06:06:12.217Z,8.60
2018-10-17T06:08:39.832Z,8.60
2018-10-17T06:11:07.453Z,8.60
2018-10-17T06:13:34.982Z,8.60
2018-10-17T06:16:02.593Z,8.60
2018-10-17T06:18:30.930Z,8.60
2018-10-17T06:20:58.496Z,8.60
2018-10-17T06:23:26.583Z,8.60
2018-10-17T06:25:54.142Z,8.60
2018-10-17T06:28:21.782Z,8.60
2018-10-17T06:30:49.476Z,8.60
2018-10-17T06:33:16.945Z,8.70
2018-10-17T06:35:44.513Z,8.70
2018-10-17T06:38:12.113Z,8.80
2018-10-17T06:40:39.684Z,8.90
2018-10-17T06:43:07.325Z,8.80
2018-10-17T06:45:35.654Z,8.80
2018-10-17T06:48:03.610Z,8.80
2018-10-17T06:50:31.790Z,8.80
2018-10-17T06:52:59.380Z,8.80
2018-10-17T06:55:26.965Z,8.80
2018-10-17T06:57:54.538Z,8.90
2018-10-17T07:00:22.102Z,9.10
2018-10-17T07:02:49.668Z,9.30
2018-10-17T07:05:18.107Z,9.30
2018-10-17T07:07:45.656Z,9.30
2018-10-17T07:10:13.217Z,9.10
2018-10-17T07:12:40.839Z,9.10
2018-10-17T07:15:08.438Z,9.00
2018-10-17T07:17:36.287Z,8.90
2018-10-17T07:20:04.403Z,8.90
2018-10-17T07:22:31.968Z,8.90
2018-10-17T07:25:00.455Z,9.00
2018-10-17T07:27:28.025Z,9.00
2018-10-17T07:29:55.644Z,9.00
2018-10-17T07:32:23.169Z,9.10
2018-10-17T07:34:50.847Z,9.10
2018-10-17T07:37:19.168Z,9.20
2018-10-17T07:39:46.744Z,9.20
2018-10-17T07:42:15.314Z,9.30
2018-10-17T07:44:42.692Z,9.30
2018-10-17T07:47:10.260Z,9.30
2018-10-17T07:49:39.065Z,9.40
2018-10-17T07:52:06.628Z,9.40
2018-10-17T07:54:34.193Z,9.50
2018-10-17T07:57:03.010Z,9.60
2018-10-17T07:59:30.614Z,9.70
2018-10-17T08:01:58.149Z,9.80
2018-10-17T08:04:25.767Z,9.90
2018-10-17T08:06:53.342Z,10.00
2018-10-17T08:09:20.910Z,10.20
2018-10-17T08:11:48.870Z,10.30
2018-10-17T08:14:16.478Z,10.40
2018-10-17T08:16:44.011Z,10.50
2018-10-17T08:19:12.290Z,10.60
2018-10-17T08:21:39.854Z,10.80
2018-10-17T08:24:07.452Z,10.90
2018-10-17T08:26:35.046Z,11.00
2018-10-17T08:29:02.618Z,11.10
2018-10-17T08:31:30.183Z,11.30
2018-10-17T08:33:57.898Z,11.40
2018-10-17T08:36:25.607Z,11.50
2018-10-17T08:38:53.060Z,11.50
2018-10-17T08:41:20.721Z,11.60
2018-10-17T08:43:49.025Z,11.80
2018-10-17T08:46:16.597Z,11.80
2018-10-17T08:48:44.225Z,11.90
2018-10-17T08:51:11.796Z,12.10
2018-10-17T08:53:39.370Z,12.30
2018-10-17T08:56:08.127Z,12.40
2018-10-17T08:58:36.014Z,12.50
2018-10-17T09:01:03.588Z,12.50
2018-10-17T09:03:31.419Z,12.60
2018-10-17T09:05:59.063Z,12.60
2018-10-17T09:08:26.622Z,12.70
2018-10-17T09:10:55.198Z,12.80
2018-10-17T09:13:23.578Z,12.90
2018-10-17T09:15:53.054Z,12.90
2018-10-17T09:18:20.992Z,12.90
2018-10-17T09:20:48.959Z,13.00
2018-10-17T09:23:16.150Z,13.10
2018-10-17T09:25:43.789Z,13.20
2018-10-17T09:28:11.443Z,13.30
2018-10-17T09:30:39.678Z,13.60
2018-10-17T09:33:07.237Z,13.60
2018-10-17T09:35:35.784Z,14.00
2018-10-17T09:38:03.312Z,14.00
2018-10-17T09:40:30.912Z,14.20
2018-10-17T09:42:59.286Z,14.20
2018-10-17T09:45:26.846Z,14.30
2018-10-17T09:47:54.458Z,14.40
2018-10-17T09:50:22.347Z,14.50
2018-10-17T09:52:49.910Z,14.60
2018-10-17T09:55:17.479Z,14.70
2018-10-17T09:57:45.064Z,14.80
2018-10-17T10:00:12.676Z,14.90
2018-10-17T10:02:40.255Z,15.00
2018-10-17T10:05:07.835Z,15.10
2018-10-17T10:07:35.484Z,15.20
2018-10-17T10:10:03.106Z,15.30
2018-10-17T10:12:30.598Z,15.40
2018-10-17T10:14:58.240Z,15.50
2018-10-17T10:17:26.634Z,16.00
2018-10-17T10:19:54.154Z,15.90
2018-10-17T10:22:21.992Z,16.10
2018-10-17T10:24:49.571Z,16.30
2018-10-17T10:27:18.373Z,16.50
2018-10-17T10:29:46.061Z,16.60
2018-10-17T10:32:13.535Z,16.70
2018-10-17T10:34:42.173Z,16.90
2018-10-17T10:37:09.735Z,17.00
2018-10-17T10:39:37.292Z,17.00
2018-10-17T10:42:05.011Z,17.20
2018-10-17T10:44:32.564Z,17.30
2018-10-17T10:47:00.124Z,17.40
2018-10-17T10:49:27.724Z,17.50
2018-10-17T10:51:55.345Z,17.60
2018-10-17T10:54:22.957Z,17.70
2018-10-17T10:56:50.613Z,17.80
2018-10-17T10:59:18.351Z,17.90
2018-10-17T11:01:45.737Z,18.00
2018-10-17T11:04:13.353Z,18.10
2018-10-17T11:06:41.681Z,18.30
2018-10-17T11:09:09.242Z,18.30
2018-10-17T11:11:36.890Z,18.40
2018-10-17T11:14:04.545Z,18.50
2018-10-17T11:16:32.038Z,18.60
2018-10-17T11:18:59.705Z,18.70
2018-10-17T11:21:27.495Z,18.80
2018-10-17T11:23:55.061Z,18.90
2018-10-17T11:26:23.453Z,19.20
2018-10-17T11:28:51.817Z,19.30
2018-10-17T11:31:19.407Z,19.30
2018-10-17T11:33:47.426Z,19.40
2018-10-17T11:36:14.988Z,19.50
2018-10-17T11:38:42.543Z,19.60
2018-10-17T11:41:10.238Z,19.70
2018-10-17T11:43:37.758Z,19.80
2018-10-17T11:46:05.332Z,19.90
2018-10-17T11:48:32.946Z,19.90
2018-10-17T11:51:00.531Z,20.00
2018-10-17T11:53:28.073Z,20.10
2018-10-17T11:55:56.190Z,20.20
2018-10-17T11:58:23.746Z,20.30
2018-10-17T12:00:51.322Z,20.40
2018-10-17T12:03:20.126Z,20.60
2018-10-17T12:05:47.777Z,20.80
2018-10-17T12:08:15.220Z,20.90
2018-10-17T12:10:43.193Z,21.00
2018-10-17T12:13:10.760Z,21.10
2018-10-17T12:15:38.343Z,21.20
2018-10-17T12:18:06.780Z,21.60
2018-10-17T12:20:34.322Z,21.50
2018-10-17T12:23:01.884Z,21.60
2018-10-17T12:25:29.479Z,21.60
2018-10-17T12:27:57.156Z,21.60
2018-10-17T12:30:24.680Z,21.60
2018-10-17T12:32:52.251Z,21.60
2018-10-17T12:37:47.423Z,21.90
2018-10-17T12:40:15.779Z,21.90
2018-10-17T12:42:43.320Z,21.90
2018-10-17T12:45:10.984Z,22.00
2018-10-17T12:47:38.497Z,22.00
2018-10-17T12:50:06.066Z,22.00
2018-10-17T12:52:34.468Z,22.10
2018-10-17T12:55:02.012Z,22.00
2018-10-17T12:57:29.652Z,22.10
2018-10-17T12:59:57.983Z,22.30
2018-10-17T13:02:25.541Z,22.20
2018-10-17T13:04:53.223Z,22.30
2018-10-17T13:07:20.746Z,22.40
2018-10-17T13:09:48.311Z,22.50
2018-10-17T13:12:15.901Z,22.50
2018-10-17T13:14:43.522Z,22.60
2018-10-17T13:17:11.166Z,22.60
2018-10-17T13:19:38.666Z,22.70
2018-10-17T13:22:06.226Z,22.70
2018-10-17T13:24:33.940Z,22.80
2018-10-17T13:27:01.445Z,22.80
2018-10-17T13:29:29.002Z,22.90
2018-10-17T13:31:56.660Z,22.90
2018-10-17T13:34:24.254Z,23.00
2018-10-17T13:36:53.525Z,23.00
2018-10-17T13:39:21.027Z,23.10
2018-10-17T13:41:48.605Z,23.10
2018-10-17T13:44:17.032Z,23.20
2018-10-17T13:46:44.597Z,23.20
2018-10-17T13:49:12.247Z,23.40
2018-10-17T13:51:40.389Z,23.40
2018-10-17T13:54:08.144Z,23.40
2018-10-17T13:56:35.700Z,23.40
2018-10-17T13:59:04.465Z,23.40
2018-10-17T14:01:31.938Z,23.50
2018-10-17T14:03:59.542Z,23.50
2018-10-17T14:06:27.109Z,23.60
2018-10-17T14:08:54.725Z,23.60
2018-10-17T14:11:22.301Z,23.80
2018-10-17T14:13:49.839Z,23.80
2018-10-17T14:16:17.403Z,23.80
2018-10-17T14:18:44.970Z,23.80
2018-10-17T14:21:13.388Z,23.80
2018-10-17T14:23:40.909Z,23.90
2018-10-17T14:26:08.464Z,24.00
2018-10-17T14:28:36.086Z,24.00
2018-10-17T14:31:03.651Z,24.00
2018-10-17T14:33:31.650Z,24.10
2018-10-17T14:35:59.287Z,24.20
2018-10-17T14:38:26.790Z,24.10
2018-10-17T14:40:54.457Z,24.10
2018-10-17T14:43:21.950Z,24.10
2018-10-17T14:45:50.289Z,24.10
2018-10-17T14:48:18.513Z,24.10
2018-10-17T14:50:46.726Z,24.10
2018-10-17T14:53:14.341Z,24.10
2018-10-17T14:55:41.916Z,24.10
2018-10-17T14:58:10.255Z,24.10
2018-10-17T15:00:37.779Z,24.10
2018-10-17T15:03:05.426Z,24.10
2018-10-17T15:05:32.954Z,24.10
2018-10-17T15:08:01.203Z,24.10
2018-10-17T15:10:28.777Z,24.10
2018-10-17T15:12:56.370Z,24.10
2018-10-17T15:15:24.765Z,24.20
2018-10-17T15:17:52.483Z,24.20
2018-10-17T15:20:20.062Z,24.20
2018-10-17T15:22:47.701Z,24.20
2018-10-17T15:25:15.272Z,24.20
2018-10-17T15:27:42.855Z,24.20
2018-10-17T15:30:11.716Z,24.10
2018-10-17T15:32:39.193Z,24.10
2018-10-17T15:35:06.769Z,24.10
2018-10-17T15:37:34.418Z,24.10
2018-10-17T15:40:02.350Z,24.10
2018-10-17T15:42:29.981Z,24.00
2018-10-17T15:44:57.651Z,24.00
2018-10-17T15:47:25.198Z,23.90
2018-10-17T15:49:52.770Z,23.90
2018-10-17T15:52:20.363Z,23.80
2018-10-17T15:54:47.936Z,23.80
2018-10-17T15:57:15.560Z,23.70
2018-10-17T15:59:43.119Z,23.60
2018-10-17T16:02:10.782Z,23.50
2018-10-17T16:04:38.553Z,23.40
2018-10-17T16:07:06.142Z,23.30
2018-10-17T16:09:33.700Z,23.20
2018-10-17T16:12:01.395Z,23.10
2018-10-17T16:14:29.660Z,22.80
2018-10-17T16:16:57.266Z,22.80
2018-10-17T16:19:24.853Z,22.70
2018-10-17T16:21:52.402Z,22.60
2018-10-17T16:24:20.089Z,22.40
2018-10-17T16:26:47.655Z,22.30
2018-10-17T16:29:15.222Z,22.20
2018-10-17T16:31:42.779Z,22.20
2018-10-17T16:34:10.428Z,22.00
2018-10-17T16:36:38.005Z,21.90
2018-10-17T16:39:05.580Z,21.70
2018-10-17T16:41:33.794Z,21.60
2018-10-17T16:44:01.650Z,21.40
2018-10-17T16:46:29.166Z,21.30
2018-10-17T16:48:56.801Z,21.20
2018-10-17T16:51:24.350Z,21.00
2018-10-17T16:53:51.939Z,20.80
2018-10-17T16:56:19.571Z,20.70
2018-10-17T16:58:47.209Z,20.50
2018-10-17T17:01:14.697Z,20.40
2018-10-17T17:03:43.217Z,20.30
2018-10-17T17:06:10.831Z,20.10
2018-10-17T17:08:38.361Z,20.10
2018-10-17T17:11:06.009Z,19.90
2018-10-17T17:13:33.570Z,19.80
2018-10-17T17:16:01.405Z,19.90
2018-10-17T17:18:29.102Z,19.80
2018-10-17T17:20:56.704Z,19.70
2018-10-17T17:23:24.231Z,19.60
2018-10-17T17:25:51.888Z,19.40
2018-10-17T17:28:19.448Z,19.30
2018-10-17T17:30:47.012Z,19.20
2018-10-17T17:33:14.705Z,19.00
2018-10-17T17:35:42.205Z,18.90
2018-10-17T17:38:09.921Z,18.90
2018-10-17T17:40:37.733Z,18.80
2018-10-17T17:43:05.294Z,18.70
2018-10-17T17:48:01.602Z,18.20
2018-10-17T17:50:29.686Z,18.20
2018-10-17T17:52:58.074Z,18.00
2018-10-17T17:55:25.631Z,17.90
2018-10-17T17:57:53.988Z,17.80
2018-10-17T18:00:22.757Z,17.80
2018-10-17T18:02:50.319Z,17.70
2018-10-17T18:05:17.878Z,17.60
2018-10-17T18:07:45.524Z,17.50
2018-10-17T18:10:13.172Z,17.50
2018-10-17T18:12:40.661Z,17.40
2018-10-17T18:15:08.267Z,17.30
2018-10-17T18:17:36.589Z,17.10
2018-10-17T18:20:04.206Z,17.10
2018-10-17T18:22:32.612Z,16.90
2018-10-17T18:25:00.114Z,16.90
2018-10-17T18:27:28.638Z,16.80
2018-10-17T18:29:56.170Z,16.80
2018-10-17T18:32:23.724Z,16.80
2018-10-17T18:34:51.811Z,16.80
2018-10-17T18:37:19.356Z,16.90
2018-10-17T18:39:46.927Z,17.00
2018-10-17T18:42:14.564Z,17.20
2018-10-17T18:44:42.126Z,17.00
2018-10-17T18:47:09.693Z,16.90
2018-10-17T18:49:37.865Z,16.70
2018-10-17T18:52:05.421Z,16.60
2018-10-17T18:54:32.996Z,16.40
2018-10-17T18:57:00.617Z,16.30
2018-10-17T18:59:28.185Z,16.20
2018-10-17T19:01:55.834Z,16.00
2018-10-17T19:04:23.449Z,15.90
2018-10-17T19:06:51.019Z,15.90
2018-10-17T19:09:18.622Z,15.80
2018-10-17T19:11:46.174Z,15.70
2018-10-17T19:14:14.546Z,15.50
2018-10-17T19:16:43.942Z,15.40
2018-10-17T19:19:11.587Z,15.40
2018-10-17T19:21:39.169Z,15.40
2018-10-17T19:24:06.857Z,15.30
2018-10-17T19:26:35.168Z,15.30
2018-10-17T19:29:02.770Z,15.30
2018-10-17T19:31:30.419Z,15.30
2018-10-17T19:33:58.043Z,15.20
2018-10-17T19:36:25.598Z,15.10
2018-10-17T19:38:53.739Z,15.20
2018-10-17T19:41:21.345Z,15.20
2018-10-17T19:43:48.941Z,15.10
2018-10-17T19:46:16.540Z,15.00
2018-10-17T19:48:44.106Z,15.00
2018-10-17T19:51:11.750Z,14.90
2018-10-17T19:53:39.328Z,14.90
2018-10-17T19:56:06.884Z,14.80
2018-10-17T19:58:34.444Z,14.70
2018-10-17T20:01:03.230Z,14.70
2018-10-17T20:03:31.610Z,14.70
2018-10-17T20:05:59.165Z,14.60
2018-10-17T20:08:27.552Z,14.60
2018-10-17T20:10:55.120Z,14.50
2018-10-17T20:13:22.687Z,14.50
2018-10-17T20:15:51.230Z,14.50
2018-10-17T20:18:19.070Z,14.40
2018-10-17T20:20:46.626Z,14.30
2018-10-17T20:23:14.603Z,14.30
2018-10-17T20:25:42.396Z,14.20
2018-10-17T20:28:09.954Z,14.20
2018-10-17T20:30:37.585Z,14.20
2018-10-17T20:33:05.381Z,14.20
2018-10-17T20:35:32.937Z,14.30
2018-10-17T20:38:00.566Z,14.30
2018-10-17T20:40:28.144Z,14.20
2018-10-17T20:42:55.793Z,14.10
2018-10-17T20:45:23.388Z,14.10
2018-10-17T20:47:50.966Z,14.00
2018-10-17T20:50:18.799Z,13.90
2018-10-17T20:52:46.304Z,13.90
2018-10-17T20:55:14.081Z,13.80
2018-10-17T20:57:42.441Z,13.90
2018-10-17T21:00:09.998Z,13.90
2018-10-17T21:02:37.671Z,13.80
2018-10-17T21:05:06.008Z,13.70
2018-10-17T21:07:33.621Z,13.70
2018-10-17T21:10:01.239Z,13.60
2018-10-17T21:12:28.806Z,13.60
2018-10-17T21:14:56.879Z,13.50
2018-10-17T21:17:24.451Z,13.50
2018-10-17T21:19:52.051Z,13.50
2018-10-17T21:22:19.633Z,13.40
2018-10-17T21:24:47.233Z,13.40
2018-10-17T21:27:15.323Z,13.40
2018-10-17T21:29:43.710Z,13.40
2018-10-17T21:32:12.050Z,13.40
2018-10-17T21:34:39.692Z,13.30
2018-10-17T21:37:07.261Z,13.40
2018-10-17T21:39:34.823Z,13.30
2018-10-17T21:42:02.476Z,13.30
2018-10-17T21:44:30.048Z,13.30
2018-10-17T21:46:57.606Z,13.30
2018-10-17T21:49:25.595Z,13.30
2018-10-17T21:51:53.456Z,13.30
2018-10-17T21:54:21.020Z,13.30
2018-10-17T21:56:53.552Z,13.30
2018-10-17T21:59:19.416Z,13.30
2018-10-17T22:01:46.985Z,13.20
2018-10-17T22:04:14.637Z,13.20
2018-10-17T22:06:42.210Z,13.10
2018-10-17T22:09:09.781Z,13.20
2018-10-17T22:11:37.473Z,13.20
2018-10-17T22:14:05.822Z,13.00
2018-10-17T22:16:33.364Z,13.00
2018-10-17T22:19:01.088Z,13.00
2018-10-17T22:21:28.546Z,12.90
2018-10-17T22:23:56.133Z,12.80
2018-10-17T22:26:24.455Z,12.70
2018-10-17T22:28:52.074Z,12.70
2018-10-17T22:31:20.174Z,12.70
2018-10-17T22:33:47.740Z,12.80
2018-10-17T22:36:15.310Z,12.80
2018-10-17T22:38:42.916Z,12.80
2018-10-17T22:41:13.072Z,12.70
2018-10-17T22:43:40.661Z,12.80
2018-10-17T22:46:08.235Z,12.70
2018-10-17T22:48:35.795Z,12.70
2018-10-17T22:51:03.381Z,12.70
2018-10-17T22:53:30.948Z,12.60
2018-10-17T22:55:58.621Z,12.60
2018-10-17T22:58:26.138Z,12.60
2018-10-17T23:00:53.710Z,12.50
2018-10-17T23:03:22.063Z,12.60
2018-10-17T23:05:49.643Z,12.60
2018-10-17T23:08:18.103Z,12.60
2018-10-17T23:10:45.633Z,12.60
2018-10-17T23:13:13.194Z,12.60
2018-10-17T23:15:40.786Z,12.50
2018-10-17T23:18:08.349Z,12.40
2018-10-17T23:20:35.997Z,12.30
2018-10-17T23:23:03.566Z,12.20
2018-10-17T23:25:31.137Z,12.20
2018-10-17T23:27:58.728Z,12.20
2018-10-17T23:30:27.063Z,12.20
2018-10-17T23:32:54.709Z,12.20
2018-10-17T23:35:22.286Z,12.20
2018-10-17T23:37:50.147Z,12.10
2018-10-17T23:40:17.733Z,12.10
2018-10-17T23:42:45.327Z,12.00
2018-10-17T23:45:12.902Z,12.00
2018-10-17T23:47:40.471Z,12.10
2018-10-17T23:50:08.066Z,12.10
2018-10-17T23:52:35.616Z,12.00
2018-10-17T23:55:03.183Z,11.90
2018-10-17T23:57:30.813Z,11.90
2018-10-17T23:59:58.407Z,11.90
